Picacho, New Mexico
Current Conditions -  °F | °C
As of 10:51 PM on Saturday 25 Oct 2014 (Local Time) from KROW Reporting Station
Clear Clear  
Wind Chill: 57°   Ceiling: Unl
Heat Index: 57°   Visibility: 10mi
Dew Point: 52°   Wind: 6mph
Humidity: 83%   Direction: 220°SW
Pressure: 30.08"   Gusts: NA
Location:  33.41°N, 105.01°W
Report Text: KROW 260451Z AUTO 22005KT 10SM CLR 14/11 A3008 RMK AO2 SLP141 T01390111
Loading
Personal Weather Stations






























Interactive Weather Map New forecast layout! Learn more

10-Day Weather Forecast

Advertisements
Track Severe Weather on mobile